マナウス の空港の天気 - METARとTAF

エドワルド ゴメス国際空港(マナウス) ( SBEG / MAO ) - ブラジル アマゾナス州マナウス
飛行場実況気象(Metar)
観測時間05/28 19:00 AMT (05/28 23:00 UTC)
風向・風速北北東 1m/s
視程10km以上
天気現象
少しの雲 雲底高度 760m
少しの雲 雲底高度 910m
気温27℃
湿度84%
気圧1009hPa
METARSBEG 282300Z 03001KT 9999 FEW025 FEW030TCU 27/24 Q1009
過去の天気等 Google飛行場航空写真 Wunderground天気予報

過去48時間のMETAR

飛行場予報(TAF)
発表時間: 5/28 11:20 AMT (5/28 15:20 UTC)
予報対象時間: 28日14時 AMT ~ 29日14時 AMT
風向・風速東 5m/s
視程8000m
天気現象
全天の4割程度の雲 雲底高度 610m
少しの積乱雲 雲底高度 820m
28日16時 AMT ~ 28日18時 AMT に徐々に
風向・風速東北東 3m/s
視程10km以上
天気現象運行に影響にある天気現象が終了
全天の4割程度の雲 雲底高度 910m
28日21時 AMT ~ 28日23時 AMT に徐々に
風向・風速北 3m/s
視程10km以上
なし
29日2時 AMT ~ 29日5時 AMT に徐々に
風向・風速北北西 4m/s
視程10km以上
全天の4割程度の雲 雲底高度 610m
29日5時 AMT から 確率 30% で
風向・風速東北東 5m/s
視程6000m
天気現象
全天の4割程度の雲 雲底高度 300m
全天の8割程度の雲 雲底高度 610m
29日11時 AMT ~ 29日12時 AMT に徐々に
風向・風速東北東 7m/s
視程8000m
全天の4割程度の雲 雲底高度 610m
少しの塔状積雲 雲底高度 1070m
TAF SBEG 281520Z 2818/2918 09010KT 8000 TS SCT020 FEW027CB TX31/2818Z TN24/2909Z
BECMG 2820/2822 07005KT 9999 NSW SCT030
BECMG 2901/2903 01005KT CAVOK
BECMG 2906/2909 33007KT 9999 SCT020
PROB30 2909/2914 07010KT 6000 RA SCT010 BKN020
BECMG 2915/2916 07013KT 8000 SCT020 FEW035TCU RMK PGB